Powell, WY (82435)

3:33 AM MDT on July 28, 2016 (GMT -0600)
Crestview Estates | | Change Station

Elev 4507 ft 44.75 °N, 108.82 °W | Updated 3 seconds ago

Rain
Rain
60.4 °F
Feels Like 60.4 °F
N
9.2
Wind Variable Wind from North
Gusts 9.2 mph

Today
High -- | Low -- °F
--% Chance of Precip.
Yesterday
High -- | Low -- °F
Precip. -- in
Pressure 30.28 in
Visibility 10.0 miles
Clouds Scattered Clouds 11000 ft
Dew Point 58 °F
Humidity 90%
Rainfall 0.15 in
Snow Depth Not available.
5:57 AM 8:45 PM
Waning Crescent, 34% visible
METAR KCOD 280915Z AUTO 31004KT 10SM SCT110 15/10 A3028 RMK AO1 LTG DSNT SE
Pressure 30.28 in
Visibility 10.0 miles
Clouds Scattered Clouds 11000 ft
Dew Point 58 °F
Humidity 90%
Rainfall 0.15 in
Snow Depth Not available.
5:57 AM 8:45 PM
Waning Crescent, 34% visible
METAR KCOD 280915Z AUTO 31004KT 10SM SCT110 15/10 A3028 RMK AO1 LTG DSNT SE

10-Day Weather Forecast

Almanac

Astronomy

Jul. 28, 2016 Rise Set
Actual Time
Civil Twilight
Nautical Twilight
Astronomical Twilight
Moon
Length of Visible Light
Length of Day
Tomorrow will be .
, % of the Moon is Illuminated

Today's Extremes

State Highs State Lows

Community

WunderPhotos

Upload Photos

1,928,070 photos uploaded!

WunderBlog® & News

Nearby

Air Quality

  Air Quality AQ Index Pollutant
Not available.

Snow Depth

Station Depth Elevation

Earthquake Activity

City Distance Mag. Time & Date
Minimum magnitude displayed is 2.5.

Coastal Water Temperatures

Place Temperature

Stations

Nearby Weather Stations

Station Location Temp. Windchill Dew Point Humidity Wind Precip. Elev Updated Type
                   

Watches & Warnings

There are currently no watches in effect.